Time;durP1;ratioP1;P1;durP2;ratioP2;P2;SDS_P1;SDS_P2;PMS_P1;PMS_P2;Temp;Humidity;BMP_temperature;BMP_pressure;BME280_temperature;BME280_humidity;BME280_pressure;Samples;Min_cycle;Max_cycle;Signal;HPM_P1;HPM_P2
2022/04/09 00:00:58;;;;;;;20.17;3.58;;;;;;;;;;5042335;28;20603;-74
2022/04/09 00:03:23;;;;;;;15.55;2.70;;;;;;;;;;5041827;28;20680;-74
2022/04/09 00:05:48;;;;;;;17.48;4.90;;;;;;;;;;5036539;28;20078;-74
2022/04/09 00:08:14;;;;;;;30.35;3.38;;;;;;;;;;5043913;28;20028;-74
2022/04/09 00:10:39;;;;;;;26.35;3.55;;;;;;;;;;5041411;28;20431;-74
2022/04/09 00:13:04;;;;;;;21.83;4.18;;;;;;;;;;5041848;28;20029;-74
2022/04/09 00:15:30;;;;;;;20.48;3.35;;;;;;;;;;5043510;28;20426;-74
2022/04/09 00:17:55;;;;;;;23.55;6.20;;;;;;;;;;5044364;28;20197;-74
2022/04/09 00:20:20;;;;;;;18.08;2.97;;;;;;;;;;5035356;28;20029;-74
2022/04/09 00:22:45;;;;;;;19.15;3.03;;;;;;;;;;5036230;28;20663;-75
2022/04/09 00:25:11;;;;;;;24.02;3.80;;;;;;;;;;5037801;28;20180;-74
2022/04/09 00:27:37;;;;;;;16.60;2.58;;;;;;;;;;5041716;28;20502;-74
2022/04/09 00:30:03;;;;;;;27.63;4.28;;;;;;;;;;5042161;28;20029;-73
2022/04/09 00:32:29;;;;;;;23.67;3.67;;;;;;;;;;5032022;28;20037;-74
2022/04/09 00:34:54;;;;;;;9.25;3.00;;;;;;;;;;5036723;28;20025;-73
2022/04/09 00:37:19;;;;;;;25.05;3.40;;;;;;;;;;5037609;28;20027;-74
2022/04/09 00:39:44;;;;;;;18.30;2.72;;;;;;;;;;5039222;28;20384;-74
2022/04/09 00:42:13;;;;;;;24.88;4.20;;;;;;;;;;5045273;28;20474;-74
2022/04/09 00:44:39;;;;;;;26.65;3.83;;;;;;;;;;5037806;28;20131;-74
2022/04/09 00:47:04;;;;;;;12.30;2.80;;;;;;;;;;5046236;28;20016;-74
2022/04/09 00:49:30;;;;;;;14.35;2.33;;;;;;;;;;5037277;28;20281;-74
2022/04/09 00:51:55;;;;;;;10.65;2.72;;;;;;;;;;5032644;28;20025;-74
2022/04/09 00:54:22;;;;;;;18.58;4.03;;;;;;;;;;5039401;28;20031;-74
2022/04/09 00:56:48;;;;;;;33.55;5.38;;;;;;;;;;5046907;28;20036;-74
2022/04/09 00:59:14;;;;;;;28.77;3.58;;;;;;;;;;5040687;28;20036;-74
2022/04/09 01:01:40;;;;;;;22.23;2.97;;;;;;;;;;5039085;28;20017;-75
2022/04/09 01:04:08;;;;;;;16.92;2.65;;;;;;;;;;5036446;28;20032;-74
2022/04/09 01:06:34;;;;;;;11.98;2.28;;;;;;;;;;5040205;28;20025;-75
2022/04/09 01:08:59;;;;;;;23.67;3.03;;;;;;;;;;5037003;28;20076;-74
2022/04/09 01:11:24;;;;;;;14.95;3.40;;;;;;;;;;5043573;28;20946;-74
2022/04/09 01:13:50;;;;;;;34.42;4.20;;;;;;;;;;5037855;28;20081;-74
2022/04/09 01:16:15;;;;;;;24.67;3.10;;;;;;;;;;5040313;28;20375;-74
2022/04/09 01:18:41;;;;;;;33.10;3.22;;;;;;;;;;5037644;28;20441;-74
2022/04/09 01:21:06;;;;;;;15.60;3.00;;;;;;;;;;5041085;28;20111;-74
2022/04/09 01:23:32;;;;;;;18.88;2.63;;;;;;;;;;5036747;28;20044;-75
2022/04/09 01:25:58;;;;;;;12.90;1.95;;;;;;;;;;5038012;28;20029;-74
2022/04/09 01:28:23;;;;;;;19.00;3.03;;;;;;;;;;5035839;28;20035;-75
2022/04/09 01:30:48;;;;;;;31.75;5.05;;;;;;;;;;5033228;28;20032;-74
2022/04/09 01:33:17;;;;;;;16.63;2.92;;;;;;;;;;5053481;22;20433;-73
2022/04/09 01:35:42;;;;;;;23.75;3.83;;;;;;;;;;5028922;28;20298;-74
2022/04/09 01:38:07;;;;;;;19.23;2.50;;;;;;;;;;5029377;28;20068;-73
2022/04/09 01:40:32;;;;;;;25.83;3.65;;;;;;;;;;5019295;28;20032;-73
2022/04/09 01:42:57;;;;;;;25.17;3.28;;;;;;;;;;5017966;28;20032;-73
2022/04/09 01:45:23;;;;;;;12.50;1.90;;;;;;;;;;5019054;28;20302;-73
2022/04/09 01:47:48;;;;;;;13.85;2.63;;;;;;;;;;5017132;28;20647;-73
2022/04/09 01:50:13;;;;;;;37.30;4.33;;;;;;;;;;5026686;28;20514;-74
2022/04/09 01:52:39;;;;;;;26.17;3.10;;;;;;;;;;5030111;28;20268;-73
2022/04/09 01:55:04;;;;;;;28.75;3.50;;;;;;;;;;5021433;28;20035;-74
2022/04/09 01:57:29;;;;;;;24.38;3.58;;;;;;;;;;5026760;28;20048;-73
2022/04/09 01:59:54;;;;;;;12.43;2.60;;;;;;;;;;5028315;28;20036;-74
2022/04/09 02:02:20;;;;;;;20.98;3.67;;;;;;;;;;5024854;28;20286;-74
2022/04/09 02:04:45;;;;;;;18.90;2.65;;;;;;;;;;5015095;28;20677;-73
2022/04/09 02:07:10;;;;;;;17.95;2.53;;;;;;;;;;5019065;28;20111;-74
2022/04/09 02:09:35;;;;;;;16.52;2.60;;;;;;;;;;5021465;28;20262;-74
2022/04/09 02:12:01;;;;;;;16.65;2.67;;;;;;;;;;5022965;28;20037;-73
2022/04/09 02:14:26;;;;;;;18.80;3.00;;;;;;;;;;5013618;28;20049;-73
2022/04/09 02:16:51;;;;;;;13.07;2.50;;;;;;;;;;5024719;28;20262;-73
2022/04/09 02:19:17;;;;;;;19.95;3.72;;;;;;;;;;5025078;28;20037;-73
2022/04/09 02:21:42;;;;;;;35.88;4.65;;;;;;;;;;5021924;28;20017;-73
2022/04/09 02:24:09;;;;;;;23.60;4.47;;;;;;;;;;5010409;28;20045;-73
2022/04/09 02:26:34;;;;;;;30.42;4.07;;;;;;;;;;5021946;28;20093;-72
2022/04/09 02:29:00;;;;;;;19.38;3.70;;;;;;;;;;5019334;28;20108;-75
2022/04/09 02:31:25;;;;;;;19.63;3.70;;;;;;;;;;5018052;28;20034;-75
2022/04/09 02:33:50;;;;;;;24.37;3.37;;;;;;;;;;5019196;28;20037;-75
2022/04/09 02:36:16;;;;;;;25.15;4.50;;;;;;;;;;5023657;28;20287;-75
2022/04/09 02:38:42;;;;;;;18.60;3.50;;;;;;;;;;5022259;28;20087;-74
2022/04/09 02:41:09;;;;;;;30.80;4.57;;;;;;;;;;5022244;28;20483;-75
2022/04/09 02:43:34;;;;;;;14.95;3.25;;;;;;;;;;5022642;28;20539;-75
2022/04/09 02:45:59;;;;;;;27.80;3.80;;;;;;;;;;5023676;28;20024;-75
2022/04/09 02:48:24;;;;;;;25.02;4.47;;;;;;;;;;5019421;28;20053;-75
2022/04/09 02:50:49;;;;;;;22.03;3.40;;;;;;;;;;5021562;28;20034;-75
2022/04/09 02:53:15;;;;;;;16.55;3.72;;;;;;;;;;5030855;28;20254;-75
2022/04/09 02:55:40;;;;;;;21.40;3.28;;;;;;;;;;5025895;28;20271;-75
2022/04/09 02:58:05;;;;;;;19.50;3.60;;;;;;;;;;5019949;28;20030;-75
2022/04/09 03:00:31;;;;;;;25.63;3.40;;;;;;;;;;5002116;28;20033;-75
2022/04/09 03:02:56;;;;;;;28.73;3.50;;;;;;;;;;5007326;28;20510;-75
2022/04/09 03:05:21;;;;;;;25.55;4.72;;;;;;;;;;4997952;28;20260;-74
2022/04/09 03:07:46;;;;;;;27.85;4.20;;;;;;;;;;5002068;28;20274;-74
2022/04/09 03:10:11;;;;;;;40.00;3.95;;;;;;;;;;5007297;28;20021;-74
2022/04/09 03:12:41;;;;;;;26.70;5.97;;;;;;;;;;5004956;28;20801;-74
2022/04/09 03:15:06;;;;;;;36.10;3.55;;;;;;;;;;5006128;28;20366;-72
2022/04/09 03:17:31;;;;;;;29.48;4.35;;;;;;;;;;5013151;28;20471;-74
2022/04/09 03:19:57;;;;;;;31.35;5.13;;;;;;;;;;5014346;28;20061;-74
2022/04/09 03:22:22;;;;;;;34.80;4.70;;;;;;;;;;4994492;28;20113;-75
2022/04/09 03:24:47;;;;;;;22.15;2.40;;;;;;;;;;5002382;28;20264;-74
2022/04/09 03:27:12;;;;;;;21.08;2.95;;;;;;;;;;5006803;28;20021;-74
2022/04/09 03:29:38;;;;;;;22.67;3.10;;;;;;;;;;5004231;28;20087;-75
2022/04/09 03:32:04;;;;;;;23.55;3.72;;;;;;;;;;5000159;28;20389;-74
2022/04/09 03:34:29;;;;;;;23.88;3.40;;;;;;;;;;5005943;28;20636;-75
2022/04/09 03:36:54;;;;;;;15.80;3.08;;;;;;;;;;5009369;28;20029;-75
2022/04/09 03:39:19;;;;;;;15.07;2.27;;;;;;;;;;5021724;28;20433;-74
2022/04/09 03:41:44;;;;;;;17.25;2.30;;;;;;;;;;5003027;28;20255;-74
2022/04/09 03:44:10;;;;;;;28.77;2.50;;;;;;;;;;5022397;28;20025;-74
2022/04/09 03:46:35;;;;;;;15.43;2.50;;;;;;;;;;4995945;28;20026;-74
2022/04/09 03:49:00;;;;;;;17.88;1.75;;;;;;;;;;5003246;28;20022;-74
2022/04/09 03:51:25;;;;;;;15.13;2.03;;;;;;;;;;5017191;28;20025;-74
2022/04/09 03:53:50;;;;;;;11.63;2.03;;;;;;;;;;5004823;28;20264;-75
2022/04/09 03:56:16;;;;;;;15.00;2.35;;;;;;;;;;4998880;28;20619;-75
2022/04/09 03:58:43;;;;;;;16.45;2.28;;;;;;;;;;5008410;28;20314;-76
2022/04/09 04:01:08;;;;;;;16.58;2.92;;;;;;;;;;4998363;28;20803;-75
2022/04/09 04:03:34;;;;;;;19.02;2.33;;;;;;;;;;5011955;28;20034;-75
2022/04/09 04:06:01;;;;;;;15.02;3.17;;;;;;;;;;5000324;28;20295;-74
2022/04/09 04:08:26;;;;;;;13.63;2.90;;;;;;;;;;4996890;28;20068;-75
2022/04/09 04:10:51;;;;;;;19.55;3.42;;;;;;;;;;5021874;28;20053;-75
2022/04/09 04:13:16;;;;;;;24.65;3.03;;;;;;;;;;5006431;28;20075;-75
2022/04/09 04:15:42;;;;;;;17.63;3.40;;;;;;;;;;5009272;28;20320;-75
2022/04/09 04:18:08;;;;;;;21.38;2.90;;;;;;;;;;5005747;28;20464;-74
2022/04/09 04:20:33;;;;;;;13.43;1.75;;;;;;;;;;5009109;28;20037;-75
2022/04/09 04:22:58;;;;;;;20.45;3.67;;;;;;;;;;5003298;28;20500;-75
2022/04/09 04:25:23;;;;;;;13.25;3.17;;;;;;;;;;5005591;28;20446;-74
2022/04/09 04:27:49;;;;;;;13.07;2.65;;;;;;;;;;5003905;28;20073;-74
2022/04/09 04:30:14;;;;;;;31.25;3.45;;;;;;;;;;5006227;28;20313;-74
2022/04/09 04:32:40;;;;;;;11.98;2.58;;;;;;;;;;5002533;28;20096;-74
2022/04/09 04:35:06;;;;;;;13.10;2.40;;;;;;;;;;4999932;28;20060;-74
2022/04/09 04:37:37;;;;;;;19.80;2.97;;;;;;;;;;5005798;28;20464;-74
2022/04/09 04:40:03;;;;;;;17.98;5.03;;;;;;;;;;5011001;28;20025;-74
2022/04/09 04:42:29;;;;;;;22.48;3.13;;;;;;;;;;5012306;28;20054;-75
2022/04/09 04:44:55;;;;;;;23.42;3.08;;;;;;;;;;5003494;28;20018;-74
2022/04/09 04:47:20;;;;;;;18.08;2.60;;;;;;;;;;5013813;28;20270;-74
2022/04/09 04:49:45;;;;;;;27.77;3.30;;;;;;;;;;5000228;28;20264;-75
2022/04/09 04:52:10;;;;;;;47.55;4.32;;;;;;;;;;5002341;28;20358;-75
2022/04/09 04:54:36;;;;;;;16.55;2.90;;;;;;;;;;5007776;28;20634;-74
2022/04/09 04:57:02;;;;;;;22.75;3.10;;;;;;;;;;4998765;28;20342;-74
2022/04/09 04:59:27;;;;;;;33.22;3.47;;;;;;;;;;5006968;28;20113;-74
2022/04/09 05:01:52;;;;;;;21.83;3.08;;;;;;;;;;5006568;28;20368;-74
2022/04/09 05:04:17;;;;;;;16.42;3.40;;;;;;;;;;5006410;28;20473;-75
2022/04/09 05:06:44;;;;;;;18.13;2.70;;;;;;;;;;5002244;28;20302;-74
2022/04/09 05:09:09;;;;;;;14.77;2.63;;;;;;;;;;5005555;28;20026;-75
2022/04/09 05:11:36;;;;;;;19.63;2.65;;;;;;;;;;5000155;28;20025;-75
2022/04/09 05:14:01;;;;;;;16.48;3.08;;;;;;;;;;5001518;28;20026;-75
2022/04/09 05:16:26;;;;;;;23.02;3.33;;;;;;;;;;5002511;28;20105;-75
2022/04/09 05:18:51;;;;;;;24.35;3.35;;;;;;;;;;5001388;28;20543;-74
2022/04/09 05:21:16;;;;;;;35.13;5.37;;;;;;;;;;5027505;28;20276;-74
2022/04/09 05:23:41;;;;;;;26.27;4.35;;;;;;;;;;4996972;28;20271;-74
2022/04/09 05:26:07;;;;;;;34.67;3.83;;;;;;;;;;5002566;28;20528;-73
2022/04/09 05:28:32;;;;;;;30.75;3.80;;;;;;;;;;5004176;28;20286;-74
2022/04/09 05:30:57;;;;;;;19.35;2.97;;;;;;;;;;5000342;28;20279;-74
2022/04/09 05:33:22;;;;;;;29.65;4.55;;;;;;;;;;5003219;28;20382;-73
2022/04/09 05:35:47;;;;;;;20.05;3.95;;;;;;;;;;4998996;28;20262;-74
2022/04/09 05:38:12;;;;;;;21.47;3.73;;;;;;;;;;5003492;28;20423;-74
2022/04/09 05:40:38;;;;;;;20.35;2.85;;;;;;;;;;5006459;28;20247;-74
2022/04/09 05:43:03;;;;;;;34.15;4.60;;;;;;;;;;5005954;28;20422;-74
2022/04/09 05:45:29;;;;;;;18.15;3.55;;;;;;;;;;5013366;28;20045;-74
2022/04/09 05:47:54;;;;;;;28.15;4.20;;;;;;;;;;4999804;28;20376;-74
2022/04/09 05:50:20;;;;;;;33.92;5.28;;;;;;;;;;5001933;28;20334;-74
2022/04/09 05:52:45;;;;;;;16.05;2.72;;;;;;;;;;4998543;28;20033;-75
2022/04/09 05:55:11;;;;;;;25.92;2.83;;;;;;;;;;4999627;28;20096;-74
2022/04/09 05:57:36;;;;;;;19.23;3.05;;;;;;;;;;5000485;28;20049;-74
2022/04/09 06:00:04;;;;;;;21.75;2.55;;;;;;;;;;4999535;28;20143;-74
2022/04/09 06:02:29;;;;;;;19.08;3.50;;;;;;;;;;4998022;28;20030;-74
2022/04/09 06:04:54;;;;;;;12.87;2.70;;;;;;;;;;4999306;28;20462;-75
2022/04/09 06:07:20;;;;;;;20.27;3.20;;;;;;;;;;5001318;28;20274;-75
2022/04/09 06:09:46;;;;;;;17.85;3.58;;;;;;;;;;4999996;28;20274;-75
2022/04/09 06:12:12;;;;;;;26.83;3.25;;;;;;;;;;4999046;28;20516;-75
2022/04/09 06:14:37;;;;;;;26.92;4.00;;;;;;;;;;4998389;28;20057;-74
2022/04/09 06:17:03;;;;;;;27.60;4.28;;;;;;;;;;4998007;28;20400;-74
2022/04/09 06:19:29;;;;;;;45.53;4.97;;;;;;;;;;4999913;28;20033;-74
2022/04/09 06:21:55;;;;;;;28.50;3.63;;;;;;;;;;4999317;28;20385;-74
2022/04/09 06:24:20;;;;;;;20.65;4.13;;;;;;;;;;4997511;28;20018;-74
2022/04/09 06:26:45;;;;;;;27.88;4.97;;;;;;;;;;4998303;28;20056;-74
2022/04/09 06:29:10;;;;;;;22.35;4.00;;;;;;;;;;4996793;28;20172;-74
2022/04/09 06:31:35;;;;;;;43.95;5.07;;;;;;;;;;4997262;28;20635;-74
2022/04/09 06:34:01;;;;;;;24.95;4.68;;;;;;;;;;4999472;28;20116;-74
2022/04/09 06:36:26;;;;;;;31.40;3.75;;;;;;;;;;4998942;28;20785;-74
2022/04/09 06:38:53;;;;;;;23.73;4.10;;;;;;;;;;5002166;28;20455;-74
2022/04/09 06:41:18;;;;;;;21.83;3.50;;;;;;;;;;4998722;28;20465;-73
2022/04/09 06:43:44;;;;;;;27.90;4.43;;;;;;;;;;5000028;28;20026;-74
2022/04/09 06:46:09;;;;;;;17.35;2.78;;;;;;;;;;5001933;28;20377;-74
2022/04/09 06:48:34;;;;;;;17.03;2.80;;;;;;;;;;4996043;28;20121;-73
2022/04/09 06:50:59;;;;;;;19.58;2.60;;;;;;;;;;5000673;28;20774;-74
2022/04/09 06:53:24;;;;;;;5.30;1.45;;;;;;;;;;4998870;28;20278;-75
2022/04/09 06:55:50;;;;;;;9.15;3.05;;;;;;;;;;5000354;28;20022;-74
2022/04/09 06:58:15;;;;;;;19.23;2.65;;;;;;;;;;4999131;28;20276;-74
2022/04/09 07:00:40;;;;;;;18.53;3.27;;;;;;;;;;4999180;28;20353;-73
2022/04/09 07:03:05;;;;;;;17.80;4.87;;;;;;;;;;5000331;28;20255;-73
2022/04/09 07:05:31;;;;;;;14.38;2.50;;;;;;;;;;5000602;28;20268;-73
2022/04/09 07:07:56;;;;;;;6.40;1.85;;;;;;;;;;4997870;28;20018;-72
2022/04/09 07:10:21;;;;;;;12.70;1.95;;;;;;;;;;4994483;28;20021;-73
2022/04/09 07:12:47;;;;;;;9.40;1.90;;;;;;;;;;4997920;28;20049;-74
2022/04/09 07:15:12;;;;;;;14.07;2.70;;;;;;;;;;4998017;28;20291;-74
2022/04/09 07:17:38;;;;;;;11.57;1.73;;;;;;;;;;4995463;28;20619;-75
2022/04/09 07:20:07;;;;;;;6.68;1.60;;;;;;;;;;5000639;28;20437;-74
2022/04/09 07:22:33;;;;;;;6.10;2.90;;;;;;;;;;4999482;28;20084;-73
2022/04/09 07:24:58;;;;;;;9.68;2.05;;;;;;;;;;4998227;28;20018;-74
2022/04/09 07:27:34;;;;;;;11.02;4.32;;;;;;;;;;5000881;28;20026;-73
2022/04/09 07:29:59;;;;;;;13.80;1.80;;;;;;;;;;5002157;28;20106;-72
2022/04/09 07:32:24;;;;;;;18.97;2.53;;;;;;;;;;5002344;28;20030;-71
2022/04/09 07:34:49;;;;;;;5.47;1.80;;;;;;;;;;5003111;28;20282;-74
2022/04/09 07:37:14;;;;;;;10.45;2.13;;;;;;;;;;5000911;28;20319;-74
2022/04/09 07:39:39;;;;;;;6.57;2.00;;;;;;;;;;5002455;28;20023;-72
2022/04/09 07:42:05;;;;;;;9.97;2.97;;;;;;;;;;5003756;28;20389;-73
2022/04/09 07:44:30;;;;;;;4.30;2.08;;;;;;;;;;5002962;28;20303;-72
2022/04/09 07:46:55;;;;;;;10.35;3.08;;;;;;;;;;5002163;28;20037;-74
2022/04/09 07:49:20;;;;;;;7.30;2.55;;;;;;;;;;5006307;28;20466;-74
2022/04/09 07:51:45;;;;;;;4.78;1.60;;;;;;;;;;5002714;28;20033;-74
2022/04/09 07:54:11;;;;;;;7.75;1.27;;;;;;;;;;5005693;28;20718;-75
2022/04/09 07:56:36;;;;;;;1.65;1.10;;;;;;;;;;5001169;28;20033;-75
2022/04/09 07:59:01;;;;;;;8.13;1.80;;;;;;;;;;4999316;28;20046;-72
2022/04/09 08:01:27;;;;;;;2.42;1.42;;;;;;;;;;5000306;28;20473;-74
2022/04/09 08:03:52;;;;;;;7.75;1.77;;;;;;;;;;5005981;28;20028;-73
2022/04/09 08:06:17;;;;;;;6.85;2.45;;;;;;;;;;4999590;28;20045;-75
2022/04/09 08:08:42;;;;;;;7.77;2.60;;;;;;;;;;5003048;28;20693;-74
2022/04/09 08:11:09;;;;;;;39.70;12.05;;;;;;;;;;5003732;28;20271;-75
2022/04/09 08:13:35;;;;;;;10.32;3.25;;;;;;;;;;4995819;28;20030;-75
2022/04/09 08:16:01;;;;;;;11.07;2.97;;;;;;;;;;5002513;28;20105;-75
2022/04/09 08:18:26;;;;;;;12.98;2.38;;;;;;;;;;4999679;28;20395;-77
2022/04/09 08:20:51;;;;;;;13.25;3.25;;;;;;;;;;5006690;28;20276;-75
2022/04/09 08:23:16;;;;;;;9.40;3.47;;;;;;;;;;5004425;28;20105;-77
2022/04/09 08:25:42;;;;;;;19.25;4.60;;;;;;;;;;5003300;28;20049;-76
2022/04/09 08:28:07;;;;;;;12.70;3.97;;;;;;;;;;5003805;28;20439;-76
2022/04/09 08:30:32;;;;;;;13.32;4.00;;;;;;;;;;5004827;28;20314;-77
2022/04/09 08:32:58;;;;;;;19.70;4.88;;;;;;;;;;5007825;28;21061;-76
2022/04/09 08:35:23;;;;;;;14.88;3.78;;;;;;;;;;4999192;28;20306;-77
2022/04/09 08:37:53;;;;;;;24.05;5.55;;;;;;;;;;5001714;28;20111;-77
2022/04/09 08:40:18;;;;;;;13.60;3.10;;;;;;;;;;4998772;28;20026;-76
2022/04/09 08:42:43;;;;;;;17.48;4.35;;;;;;;;;;4999809;28;20421;-76
2022/04/09 08:45:09;;;;;;;15.07;4.25;;;;;;;;;;5000529;28;20030;-76
2022/04/09 08:47:35;;;;;;;23.95;5.43;;;;;;;;;;5004758;28;20084;-75
2022/04/09 08:50:01;;;;;;;18.90;3.20;;;;;;;;;;5006425;28;20021;-77
2022/04/09 08:52:27;;;;;;;17.00;3.35;;;;;;;;;;4998392;28;20069;-77
2022/04/09 08:54:52;;;;;;;9.63;2.05;;;;;;;;;;5001839;28;20472;-77
2022/04/09 08:57:17;;;;;;;6.43;1.80;;;;;;;;;;4997484;28;20026;-76
2022/04/09 08:59:42;;;;;;;14.27;2.80;;;;;;;;;;5001184;28;20321;-76
2022/04/09 09:02:07;;;;;;;9.40;2.50;;;;;;;;;;5008100;28;20347;-76
2022/04/09 09:04:33;;;;;;;11.00;2.80;;;;;;;;;;5000374;28;20045;-76
2022/04/09 09:07:18;;;;;;;10.05;1.52;;;;;;;;;;5000803;28;20977;-74
2022/04/09 09:09:43;;;;;;;17.67;3.17;;;;;;;;;;5004113;28;20064;-76
2022/04/09 09:12:10;;;;;;;17.10;3.40;;;;;;;;;;5004230;28;20038;-77
2022/04/09 09:14:36;;;;;;;18.20;3.28;;;;;;;;;;5002689;28;20021;-75
2022/04/09 09:17:02;;;;;;;29.13;3.65;;;;;;;;;;5004049;28;20113;-77
2022/04/09 09:19:40;;;;;;;12.15;2.10;;;;;;;;;;5002085;28;20073;-75
2022/04/09 09:22:05;;;;;;;10.27;2.45;;;;;;;;;;4998178;28;20615;-74
2022/04/09 09:24:31;;;;;;;20.35;4.60;;;;;;;;;;5003035;28;20121;-75
2022/04/09 09:26:58;;;;;;;11.68;2.90;;;;;;;;;;5007377;28;20039;-76
2022/04/09 09:29:26;;;;;;;11.57;2.55;;;;;;;;;;5010268;28;20027;-76
2022/04/09 09:31:52;;;;;;;9.07;2.65;;;;;;;;;;5004316;28;20065;-76
2022/04/09 09:34:21;;;;;;;7.35;2.60;;;;;;;;;;4999963;28;20030;-76
2022/04/09 09:36:47;;;;;;;20.67;3.92;;;;;;;;;;5004434;28;20076;-76
2022/04/09 09:39:13;;;;;;;12.93;2.05;;;;;;;;;;5004581;28;20022;-75
2022/04/09 09:41:52;;;;;;;2.90;1.35;;;;;;;;;;5000827;28;20049;-75
2022/04/09 09:44:20;;;;;;;3.47;1.40;;;;;;;;;;5000754;28;20472;-75
2022/04/09 09:46:47;;;;;;;3.03;1.40;;;;;;;;;;4999849;28;20606;-75
2022/04/09 09:49:13;;;;;;;2.78;0.98;;;;;;;;;;4997460;28;20033;-75
2022/04/09 09:51:38;;;;;;;5.57;1.63;;;;;;;;;;4996248;28;20030;-74
2022/04/09 09:54:07;;;;;;;10.35;3.05;;;;;;;;;;4995053;28;20495;-77
2022/04/09 09:56:35;;;;;;;5.30;2.38;;;;;;;;;;4999459;28;20053;-76
2022/04/09 09:59:01;;;;;;;10.45;2.42;;;;;;;;;;4996049;28;20428;-76
2022/04/09 10:01:26;;;;;;;10.30;3.28;;;;;;;;;;4997121;28;20026;-76
2022/04/09 10:03:53;;;;;;;20.55;7.53;;;;;;;;;;4996715;28;20026;-75
2022/04/09 10:06:18;;;;;;;13.95;5.45;;;;;;;;;;4999603;28;20021;-75
2022/04/09 10:08:43;;;;;;;8.18;1.80;;;;;;;;;;5005428;28;20380;-75
2022/04/09 10:11:09;;;;;;;14.48;3.72;;;;;;;;;;5005889;28;20041;-75
2022/04/09 10:13:35;;;;;;;48.72;14.98;;;;;;;;;;5000617;28;20148;-74
2022/04/09 10:16:01;;;;;;;25.10;9.25;;;;;;;;;;5000463;28;20027;-71
2022/04/09 10:18:26;;;;;;;8.13;2.83;;;;;;;;;;5001219;28;20038;-75
2022/04/09 10:20:53;;;;;;;29.38;8.07;;;;;;;;;;4996483;28;20388;-75
2022/04/09 10:23:19;;;;;;;23.85;13.10;;;;;;;;;;4998283;28;20037;-75
2022/04/09 10:25:46;;;;;;;14.73;4.63;;;;;;;;;;5004368;28;20022;-76
2022/04/09 10:28:11;;;;;;;23.95;13.65;;;;;;;;;;4995819;28;20050;-76
2022/04/09 10:30:39;;;;;;;18.65;7.47;;;;;;;;;;5001977;28;20405;-75
2022/04/09 10:33:19;;;;;;;9.73;5.25;;;;;;;;;;4996227;28;20072;-74
2022/04/09 10:35:46;;;;;;;20.38;7.60;;;;;;;;;;4997036;28;20418;-75
2022/04/09 10:38:14;;;;;;;8.77;3.55;;;;;;;;;;5002867;28;20026;-76
2022/04/09 10:40:59;;;;;;;20.58;11.23;;;;;;;;;;4995428;28;20022;-75
2022/04/09 10:43:25;;;;;;;16.00;7.75;;;;;;;;;;5002858;28;20370;-76
2022/04/09 10:46:04;;;;;;;20.77;6.45;;;;;;;;;;5001660;28;20026;-74
2022/04/09 10:48:30;;;;;;;22.42;8.10;;;;;;;;;;4999162;28;20350;-76
2022/04/09 10:51:01;;;;;;;16.05;4.88;;;;;;;;;;5003776;28;20590;-74
2022/04/09 10:53:27;;;;;;;9.65;3.40;;;;;;;;;;4995789;28;20393;-73
2022/04/09 10:56:11;;;;;;;9.02;2.35;;;;;;;;;;4995134;28;20050;-75
2022/04/09 10:58:55;;;;;;;7.78;2.90;;;;;;;;;;4995421;28;20063;-75
2022/04/09 11:01:39;;;;;;;3.75;2.22;;;;;;;;;;5007217;28;20037;-75
2022/04/09 11:04:23;;;;;;;7.20;3.30;;;;;;;;;;5001877;28;20839;-77
2022/04/09 11:06:59;;;;;;;8.40;2.30;;;;;;;;;;5000809;28;20076;-77
2022/04/09 11:09:25;;;;;;;5.18;2.40;;;;;;;;;;5003922;28;20774;-75
2022/04/09 11:12:00;;;;;;;9.88;2.88;;;;;;;;;;5002561;28;20469;-73
2022/04/09 11:14:25;;;;;;;;;;;;;;;;;;5007648;28;20030;-75
2022/04/09 11:16:50;;;;;;;11.73;3.95;;;;;;;;;;5001792;28;19960;-76
2022/04/09 11:19:15;;;;;;;9.52;6.38;;;;;;;;;;5009988;28;20068;-76
2022/04/09 11:21:40;;;;;;;10.63;4.07;;;;;;;;;;5002492;28;20290;-76
2022/04/09 11:24:06;;;;;;;16.23;4.40;;;;;;;;;;5008148;28;20350;-76
2022/04/09 11:26:31;;;;;;;10.48;2.95;;;;;;;;;;5000954;28;20274;-76
2022/04/09 11:28:56;;;;;;;6.17;2.67;;;;;;;;;;4998843;28;20096;-77
2022/04/09 11:31:22;;;;;;;14.70;3.58;;;;;;;;;;5004228;28;20275;-76
2022/04/09 11:33:57;;;;;;;15.68;3.10;;;;;;;;;;5002023;28;20160;-77
2022/04/09 11:36:22;;;;;;;13.15;3.47;;;;;;;;;;4999334;28;20093;-77
2022/04/09 11:38:48;;;;;;;12.07;3.50;;;;;;;;;;4999557;28;20575;-76
2022/04/09 11:41:20;;;;;;;17.83;4.05;;;;;;;;;;5004783;28;20385;-76
2022/04/09 11:43:46;;;;;;;11.23;2.38;;;;;;;;;;5000760;28;20500;-75
2022/04/09 11:46:12;;;;;;;4.80;1.80;;;;;;;;;;5005225;28;20027;-78
2022/04/09 11:48:37;;;;;;;9.90;2.08;;;;;;;;;;5003689;28;20357;-77
2022/04/09 11:51:02;;;;;;;10.03;2.63;;;;;;;;;;5006203;28;20464;-75
2022/04/09 11:53:27;;;;;;;9.03;2.43;;;;;;;;;;5000730;28;20274;-77
2022/04/09 11:55:59;;;;;;;6.15;1.80;;;;;;;;;;5007996;28;20341;-76
2022/04/09 11:58:31;;;;;;;11.75;2.42;;;;;;;;;;5004087;28;20487;-77
2022/04/09 12:00:56;;;;;;;13.25;2.40;;;;;;;;;;5004500;28;20471;-76
2022/04/09 12:03:21;;;;;;;10.07;2.47;;;;;;;;;;5001591;28;20512;-77
2022/04/09 12:05:47;;;;;;;13.83;3.17;;;;;;;;;;5006631;28;20310;-77
2022/04/09 12:08:13;;;;;;;11.35;3.50;;;;;;;;;;5007752;28;20272;-77
2022/04/09 12:10:54;;;;;;;12.02;3.60;;;;;;;;;;5011704;28;20032;-77
2022/04/09 12:13:26;;;;;;;10.27;3.42;;;;;;;;;;5003341;28;20112;-73
2022/04/09 12:15:52;;;;;;;7.40;2.10;;;;;;;;;;5007086;28;20130;-76
2022/04/09 12:18:31;;;;;;;10.75;2.85;;;;;;;;;;5007454;28;20047;-73
2022/04/09 12:20:56;;;;;;;15.27;4.78;;;;;;;;;;5005227;28;20517;-75
2022/04/09 12:23:29;;;;;;;19.88;8.30;;;;;;;;;;4998366;28;20034;-74
2022/04/09 12:25:55;;;;;;;9.57;5.03;;;;;;;;;;5004692;28;20649;-72
2022/04/09 12:28:24;;;;;;;13.18;5.05;;;;;;;;;;4997638;28;20125;-70
2022/04/09 12:30:51;;;;;;;12.90;4.70;;;;;;;;;;5002338;28;20022;-71
2022/04/09 12:33:16;;;;;;;5.72;3.53;;;;;;;;;;4998203;28;20037;-71
2022/04/09 12:35:42;;;;;;;9.20;2.60;;;;;;;;;;5001796;28;20022;-72
2022/04/09 12:38:07;;;;;;;6.80;1.73;;;;;;;;;;4994075;28;20379;-71
2022/04/09 12:40:33;;;;;;;14.10;3.03;;;;;;;;;;5009391;28;20361;-72
2022/04/09 12:43:00;;;;;;;7.93;2.50;;;;;;;;;;5006864;28;20068;-71
2022/04/09 12:45:25;;;;;;;8.57;1.83;;;;;;;;;;5001226;28;20030;-70
2022/04/09 12:48:00;;;;;;;6.70;1.88;;;;;;;;;;5007314;28;20022;-70
2022/04/09 12:50:27;;;;;;;5.25;2.30;;;;;;;;;;4999191;28;20033;-71
2022/04/09 12:52:53;;;;;;;10.98;2.20;;;;;;;;;;5006675;28;20059;-74
2022/04/09 12:55:19;;;;;;;8.70;2.58;;;;;;;;;;5000538;28;20026;-74
2022/04/09 12:57:44;;;;;;;5.75;1.70;;;;;;;;;;4998813;28;20379;-71
2022/04/09 13:00:10;;;;;;;8.43;1.60;;;;;;;;;;4997280;28;20026;-69
2022/04/09 13:02:36;;;;;;;4.55;1.63;;;;;;;;;;5001855;28;20592;-69
2022/04/09 13:05:02;;;;;;;11.25;1.80;;;;;;;;;;4999424;28;20105;-68
2022/04/09 13:07:27;;;;;;;9.00;4.57;;;;;;;;;;5004451;28;20030;-68
2022/04/09 13:09:52;;;;;;;23.48;8.55;;;;;;;;;;5017604;28;20025;-69
2022/04/09 13:12:17;;;;;;;21.83;6.83;;;;;;;;;;5001273;28;20454;-69
2022/04/09 13:14:43;;;;;;;20.80;6.03;;;;;;;;;;5000903;28;20026;-69
2022/04/09 13:17:08;;;;;;;55.75;12.60;;;;;;;;;;5003584;28;20041;-70
2022/04/09 13:19:35;;;;;;;74.22;15.98;;;;;;;;;;5005537;28;20043;-68
2022/04/09 13:22:00;;;;;;;37.60;10.48;;;;;;;;;;5001260;28;20018;-68
2022/04/09 13:24:25;;;;;;;59.30;13.60;;;;;;;;;;5003045;28;20080;-69
2022/04/09 13:26:50;;;;;;;106.30;30.90;;;;;;;;;;5003010;28;20065;-70
2022/04/09 13:29:16;;;;;;;45.47;15.00;;;;;;;;;;5004629;28;20030;-69
2022/04/09 13:31:41;;;;;;;23.30;8.20;;;;;;;;;;5000066;28;20030;-70
2022/04/09 13:34:11;;;;;;;11.13;6.32;;;;;;;;;;5001170;28;20046;-69
2022/04/09 13:36:37;;;;;;;14.90;5.82;;;;;;;;;;5000961;28;20076;-68
2022/04/09 13:39:02;;;;;;;5.70;2.27;;;;;;;;;;5001504;28;20030;-69
2022/04/09 13:41:28;;;;;;;15.10;6.47;;;;;;;;;;4995280;28;20401;-69
2022/04/09 13:43:54;;;;;;;12.38;2.88;;;;;;;;;;4997133;28;20523;-69
2022/04/09 13:46:19;;;;;;;6.10;2.58;;;;;;;;;;4999817;28;20091;-69
2022/04/09 13:48:45;;;;;;;8.83;2.40;;;;;;;;;;5002589;28;20021;-68
2022/04/09 13:51:12;;;;;;;10.48;3.60;;;;;;;;;;5003873;28;20286;-69
2022/04/09 13:53:37;;;;;;;12.57;4.68;;;;;;;;;;4998150;28;20026;-69
2022/04/09 13:56:04;;;;;;;12.40;3.58;;;;;;;;;;4996025;28;20459;-69
2022/04/09 13:58:29;;;;;;;11.13;2.22;;;;;;;;;;5000753;28;20090;-69
2022/04/09 14:00:54;;;;;;;9.50;2.83;;;;;;;;;;5003272;28;20084;-68
2022/04/09 14:03:19;;;;;;;4.60;2.35;;;;;;;;;;4999132;28;20037;-69
2022/04/09 14:05:45;;;;;;;12.10;3.28;;;;;;;;;;5000318;28;20052;-69
2022/04/09 14:08:10;;;;;;;10.98;2.90;;;;;;;;;;5002619;28;20756;-69
2022/04/09 14:10:35;;;;;;;8.47;2.20;;;;;;;;;;5015119;28;20033;-70
2022/04/09 14:13:01;;;;;;;8.82;2.78;;;;;;;;;;4999317;28;20680;-68
2022/04/09 14:15:26;;;;;;;11.48;2.30;;;;;;;;;;4998028;28;21089;-70
2022/04/09 14:17:51;;;;;;;10.47;3.33;;;;;;;;;;5002686;28;20030;-68
2022/04/09 14:20:17;;;;;;;6.88;3.15;;;;;;;;;;4999200;28;20049;-69
2022/04/09 14:22:42;;;;;;;9.05;1.85;;;;;;;;;;5000637;28;20030;-69
2022/04/09 14:25:08;;;;;;;39.03;15.20;;;;;;;;;;5004694;28;20447;-68
2022/04/09 14:27:33;;;;;;;14.50;4.32;;;;;;;;;;5001234;28;20305;-70